Aérodrome :
LOGIN :

S'inscrire | Disclaimer

   EN    FR    IT 

 










Légende :    VFR   VFR Marginal   IFR   IFR Intensif   IFR Très Intensif
Visi : 
Plafond : 
>= 8 km
>= 3000ft
5 à 8 km
1000 à 3000 ft
1500m à 5 km
500 à 1000 ft
800 à 1500m
200 à 500 ft
< 800m
< 200 ft
Symboles :   Orages  Brouillard  Fortes neiges  Fortes précipitations  Vent > 20 kt
SIGMETs :   Divers  Orages  Givrage  Turbulence  Onde Orograph.  Cendres Volcan.







- Altitude de l'aérodrome : 233 ft
- Code IATA : REU


LERS - Reus Tarragona

DERNIER METAR :
  • 200030Z AUTO 03004KT 9999 NCD 21/18 Q1019

METARs EXPIRÉS :
  • 200000Z AUTO 01005KT 9999 NCD 23/18 Q1019
  • 192330Z AUTO 01006KT 9999 NCD 24/17 Q1019
  • 192300Z AUTO 36006KT 9999 NCD 24/18 Q1019
  • 192230Z AUTO 01006KT 9999 NCD 24/18 Q1019
  • 192200Z 36007KT CAVOK 24/18 Q1019

TAF TAF LERS
Valide du 19 à 21h jusqu'au 20 à 21h UTC


192000Z 1921/2021 VRB04KT 9999 FEW040 TX34/2013Z TN20/2005Z
TEMPO 2004/2015 28012G24KT
TEMPO 2015/2018 21015G30KT
Pas de NOTAMs connus pour ce terrain.



MET'MAP, la Météo Aéronautique d'un coup d'oeil ! - Copyright ORBIFLY Décembre 2007 - Disclaimer

ORBIFLY MET'MAP TEAM :

Programmation & Développement : Alexandra Zaïnal
Conception & Développement : Baudouin d'Aumeries
Co-Programmation & Développement : Marc-Olivier Méhu
Soutien technique & logistique : Manuel Goepfert

Contact : metmap@orbifly.com




SOURCES & CREDITS :

   NOAA